Impacts METAR Board INFO
IDs:

KIAD - Washington/Dulles In, VA, US

Updated at: 1410 UTC 19 Nov 2017
Potential Impact None Slight Moderate High
Time19/02Z 19/03Z 19/04Z 19/05Z 19/06Z 19/07Z 19/08Z 19/09Z 19/10Z 19/11Z 19/12Z 19/13Z 19/14Z
VIS10 10 10 10 9 10 10 7 10 10 10 10 10
CIG140 140 140 70 100 35 130 50 55 -- -- -- 43
CoverOVCOVCOVCOVCOVCOVCOVCOVCOVCSCTFEWFEWBKN
FltCatVFRVFRVFRVFRVFRVFRVFRVFRVFRVFRVFRVFRVFR
WX-------RA-RA-RA---RA----------
WDir190200190200190180190230300290310300290
WSpd19 19 17 16 14 12 13 14 24 29 16 18 17
WGst32 26 29 24 24 17 -- 20 34 40 27 30 33
Raw hourly METARs
KIAD 190152Z 19019G32KT 10SM FEW100 OVC140 16/08 A2946 RMK AO2 PK WND 22037/0128 PRESFR SLP975 T01610078 $
KIAD 190252Z 20019G26KT 10SM SCT085 OVC140 16/08 A2945 RMK AO2 PK WND 23031/0213 SLP973 T01610083 56024 $
KIAD 190352Z 19017G29KT 10SM SCT085 OVC140 16/09 A2941 RMK AO2 PK WND 20029/0349 SLP959 T01610089
KIAD 190452Z 20016G24KT 10SM -RA FEW055 BKN070 OVC140 15/11 A2940 RMK AO2 PK WND 19029/0430 RAB25 SLP956 P0001 T01500111 401671006
KIAD 190552Z 19014G24KT 9SM -RA FEW037 SCT055 OVC100 14/12 A2937 RMK AO2 SLP945 P0003 60004 T01440117 10167 20144 56027
KIAD 190652Z 18012G17KT 10SM -RA BKN035 BKN060 OVC070 13/13 A2937 RMK AO2 SLP943 P0004 T01330128
KIAD 190752Z 19013KT 10SM FEW070 BKN130 OVC180 14/12 A2931 RMK AO2 RAE03 SLP925 P0000 T01390122
KIAD 190852Z 23014G20KT 7SM -RA FEW024 SCT035 BKN050 OVC170 15/13 A2936 RMK AO2 RAB47 PRESRR SLP942 P0000 60004 T01500128 55003
KIAD 190952Z 30024G34KT 10SM FEW036 SCT045 OVC055 13/06 A2943 RMK AO2 PK WND 29039/0928 RAE09 PRESRR SLP964 P0002 T01280056
KIAD 191052Z 29029G40KT 10SM SCT050 09/02 A2952 RMK AO2 PK WND 30043/0959 SLP995 T00940017
KIAD 191152Z 31016G27KT 10SM FEW050 FEW130 08/00 A2959 RMK AO2 PK WND 30042/1056 SLP020 60006 70010 T00780000 10156 20078 53076
KIAD 191252Z 30018G30KT 10SM FEW040 FEW130 08/01 A2964 RMK AO2 PK WND 30033/1217 SLP036 T00780006
KIAD 191352Z 29017G33KT 10SM BKN043 BKN090 09/01 A2969 RMK AO2 PK WND 31036/1307 SLP051 T00890011